Detall de PIREP

Printer-friendly versionPDF version

[2014/09/27 06:03:00]
Flight IATA:CT0001
Pilot Number:041
Company ICAO:CAT
Aircraft Type:BE20/A
PAX:4
Departing Airport: LEGE
Destination Airport: LELC
Alternate Airport:LEGR
Online: VATSIM
Route:MAMUK H110 SEROX A34 ALT
Flight Level:FL090
No Slew and time accel
No pause
Crash detect
Detect pilot in Cockpit between each 30 and 45 minutes
06:03 Zero fuel Weight: 8737 Lbs, Fuel Weight: 3677 Lbs
06:03 VATSIM:LEGE 270530Z 00000KT 6000 NSC 10/09 Q1024
06:03 VATSIM:LELC 262100Z 08011KT 030V120 9999 SCT040 24/19 Q1021 NOSIG
06:04 VOICE CATALONIAN
06:19 Parking Brakes off
06:23 Take-off
06:23 Take off Weight: 12368 Lbs
06:23 Wind: 356º @ 000 Knots Heading: 014º
06:23 POS N41º 54´ 23´´ E002º 45´ 45´´
06:23 Gear Up: 133 Knots
06:23 Flaps:1 at 133 Knots
06:24 Flaps:0 at 144 Knots
06:32 TOC
06:32 Fuel Weight: 3511 Lb
06:38 Wind:299º@008 Knots Heading: 260º Ground Speed:220 Knots Altitude 9294 ft
06:53 Wind:336º@008 Knots Heading: 251º Ground Speed: 227 Knots Altitude 9301 ft
07:08 Wind:317º@008 Knots Heading: 197º Ground Speed: 232 Knots Altitude 9301 ft
07:23 Wind:291º@008 Knots Heading: 198º Ground Speed: 226 Knots Altitude 9297 ft
07:38 Wind:285º@008 Knots Heading: 184º Ground Speed: 228 Knots Altitude 9288 ft
07:46 TOD
07:46 Fuel Weight: 2703 Lb
07:53 Wind:281º@007 Knots Heading: 180º Ground Speed: 214 Knots Altitude 3992 ft
08:04 Flaps:1 at 157 Knots
08:08 Wind:194º@007 Knots Heading: 327º Ground Speed: 159 Knots Altitude 3520 ft
08:11 Gear Down: 137 Knots
08:12 Flaps:2 at 130 Knots
08:16 TouchDown:Rate -112 ft/min Speed: 106 Knots
08:16 Flaps:0 at 85 Knots
08:16 VATSIM:LELC 270800Z 07011KT 030V120 9999 SCT033 24/17 Q1021 NOSIG
08:16 Land
08:16 Wind:110º@010 Knots
08:16 Heading: 046º
08:16 Flight Duration: 01:53
08:16 Landing Weight: 11211 Lbs
08:16 POS N37º 46´ 45´´ W000º 48´ 23´´
08:19 Parking brakes on
08:19 Block to Block Duration: 02:00
08:19 Final Fuel: 2466 Lbls
08:19 Spent Fuel: 1210 Lbls
08:19 Flight Length: 401 NM
08:19 TOD Land Length: 91 NM

Exportar CSV

Powered by Drupal - Modified by Danger4k